createdAt,value
2019-01-21T00:00:54.121Z,0.00
2019-01-21T00:01:54.089Z,0.00
2019-01-21T00:02:54.044Z,0.00
2019-01-21T00:03:54.025Z,0.00
2019-01-21T00:04:53.991Z,0.00
2019-01-21T00:05:54.012Z,0.00
2019-01-21T00:06:53.972Z,0.00
2019-01-21T00:07:54.012Z,0.00
2019-01-21T00:08:53.975Z,0.00
2019-01-21T00:09:54.033Z,0.00
2019-01-21T00:10:53.928Z,0.00
2019-01-21T00:11:53.936Z,0.00
2019-01-21T00:12:53.952Z,0.00
2019-01-21T00:13:53.978Z,0.00
2019-01-21T00:14:53.884Z,0.00
2019-01-21T00:15:53.976Z,0.00
2019-01-21T00:16:53.909Z,0.00
2019-01-21T00:17:53.893Z,0.00
2019-01-21T00:18:53.862Z,0.00
2019-01-21T00:19:53.891Z,0.00
2019-01-21T00:20:53.833Z,0.00
2019-01-21T00:21:53.931Z,0.00
2019-01-21T00:22:53.832Z,0.00
2019-01-21T00:23:53.852Z,0.00
2019-01-21T00:24:54.184Z,0.00
2019-01-21T00:25:53.846Z,0.00
2019-01-21T00:26:53.761Z,0.00
2019-01-21T00:27:53.840Z,0.00
2019-01-21T00:28:53.762Z,0.00
2019-01-21T00:29:53.883Z,0.00
2019-01-21T00:30:53.745Z,0.00
2019-01-21T00:31:53.781Z,0.00
2019-01-21T00:32:53.699Z,0.00
2019-01-21T00:33:53.812Z,0.00
2019-01-21T00:34:53.683Z,0.00
2019-01-21T00:35:53.695Z,0.00
2019-01-21T00:36:53.673Z,0.00
2019-01-21T00:37:53.718Z,0.00
2019-01-21T00:38:53.654Z,0.00
2019-01-21T00:39:53.722Z,0.00
2019-01-21T00:40:53.619Z,0.00
2019-01-21T00:41:53.634Z,0.00
2019-01-21T00:42:53.614Z,0.00
2019-01-21T00:43:53.690Z,0.00
2019-01-21T00:44:53.594Z,0.00
2019-01-21T00:45:53.666Z,0.00
2019-01-21T00:46:53.557Z,0.00
2019-01-21T00:47:53.576Z,0.00
2019-01-21T00:48:53.575Z,0.00
2019-01-21T00:49:53.595Z,0.00
2019-01-21T00:50:53.527Z,0.00
2019-01-21T00:51:53.615Z,0.00
2019-01-21T00:52:53.538Z,0.00
2019-01-21T00:53:53.513Z,0.00
2019-01-21T00:54:53.501Z,0.00
2019-01-21T00:55:53.529Z,0.00
2019-01-21T00:56:53.470Z,0.00
2019-01-21T00:57:53.553Z,0.00
2019-01-21T00:58:53.461Z,0.00
2019-01-21T00:59:53.482Z,0.00
2019-01-21T01:00:53.446Z,0.00
2019-01-21T01:01:53.471Z,0.00
2019-01-21T01:02:53.430Z,0.00
2019-01-21T01:03:53.490Z,0.00
2019-01-21T01:04:53.394Z,0.00
2019-01-21T01:05:53.387Z,0.00
2019-01-21T01:06:53.377Z,0.00
2019-01-21T01:07:53.418Z,0.00
2019-01-21T01:08:53.347Z,0.00
2019-01-21T01:09:53.438Z,0.00
2019-01-21T01:10:53.344Z,0.00
2019-01-21T01:11:53.334Z,0.00
2019-01-21T01:12:53.309Z,0.00
2019-01-21T01:13:53.342Z,0.00
2019-01-21T01:14:53.295Z,0.00
2019-01-21T01:15:53.369Z,0.00
2019-01-21T01:16:53.265Z,0.00
2019-01-21T01:17:53.287Z,0.00
2019-01-21T01:18:53.244Z,0.00
2019-01-21T01:19:53.306Z,0.00
2019-01-21T01:20:53.210Z,0.00
2019-01-21T01:21:53.297Z,0.00
2019-01-21T01:22:53.197Z,0.00
2019-01-21T01:23:53.205Z,0.00
2019-01-21T01:24:53.192Z,0.00
2019-01-21T01:25:53.185Z,0.00
2019-01-21T01:26:53.170Z,0.00
2019-01-21T01:27:53.240Z,0.00
2019-01-21T01:28:53.149Z,0.00
2019-01-21T01:29:53.169Z,0.00
2019-01-21T01:30:53.134Z,0.00
2019-01-21T01:32:15.193Z,0.00
2019-01-21T01:32:53.093Z,0.00
2019-01-21T01:33:53.084Z,0.00
2019-01-21T01:34:58.128Z,0.00
2019-01-21T01:35:53.092Z,0.00
2019-01-21T01:36:53.102Z,0.00
2019-01-21T01:37:53.061Z,0.00
2019-01-21T01:38:53.135Z,0.00
2019-01-21T01:39:53.053Z,0.00
2019-01-21T01:40:54.040Z,0.00
2019-01-21T01:41:53.026Z,0.00
2019-01-21T01:42:53.030Z,0.00
2019-01-21T01:43:52.984Z,0.00
2019-01-21T01:44:53.055Z,0.00
2019-01-21T01:45:53.006Z,0.00
2019-01-21T01:46:53.068Z,0.00
2019-01-21T01:47:52.942Z,0.00
2019-01-21T01:48:53.034Z,0.00
2019-01-21T01:49:52.940Z,0.00
2019-01-21T01:50:53.005Z,0.00
2019-01-21T01:51:52.904Z,0.00
2019-01-21T01:52:52.998Z,0.00
2019-01-21T01:53:52.897Z,0.00
2019-01-21T01:54:52.916Z,0.00
2019-01-21T01:55:52.896Z,0.00
2019-01-21T01:56:52.931Z,0.00
2019-01-21T01:57:52.847Z,0.00
2019-01-21T01:58:52.938Z,0.00
2019-01-21T01:59:52.909Z,0.00
2019-01-21T02:00:52.885Z,0.00
2019-01-21T02:01:52.801Z,0.00
2019-01-21T02:02:52.861Z,0.00
2019-01-21T02:03:52.795Z,0.00
2019-01-21T02:04:52.959Z,0.00
2019-01-21T02:05:52.780Z,0.00
2019-01-21T02:06:52.782Z,0.00
2019-01-21T02:07:52.760Z,0.00
2019-01-21T02:08:52.810Z,0.00
2019-01-21T02:09:52.725Z,0.00
2019-01-21T02:10:52.737Z,0.00
2019-01-21T02:11:52.709Z,0.00
2019-01-21T02:12:52.733Z,0.00
2019-01-21T02:13:52.687Z,0.00
2019-01-21T02:14:52.746Z,0.00
2019-01-21T02:15:52.661Z,0.00
2019-01-21T02:16:52.763Z,0.00
2019-01-21T02:17:52.655Z,0.00
2019-01-21T02:18:52.656Z,0.00
2019-01-21T02:19:52.626Z,0.00
2019-01-21T02:20:52.766Z,0.00
2019-01-21T02:21:52.588Z,0.00
2019-01-21T02:22:52.683Z,0.00
2019-01-21T02:23:52.572Z,0.00
2019-01-21T02:24:52.620Z,0.00
2019-01-21T02:25:52.698Z,0.00
2019-01-21T02:26:54.558Z,0.00
2019-01-21T02:27:52.531Z,0.00
2019-01-21T02:28:53.545Z,0.00
2019-01-21T02:29:52.513Z,0.00
2019-01-21T02:30:52.560Z,0.00
2019-01-21T02:31:52.525Z,0.00
2019-01-21T02:32:52.554Z,0.00
2019-01-21T02:33:52.518Z,0.00
2019-01-21T02:34:52.571Z,0.00
2019-01-21T02:35:52.860Z,0.00
2019-01-21T02:36:52.504Z,0.00
2019-01-21T02:37:52.431Z,0.00
2019-01-21T02:38:52.538Z,0.00
2019-01-21T02:39:52.429Z,0.00
2019-01-21T02:40:52.448Z,0.00
2019-01-21T02:41:53.447Z,0.00
2019-01-21T02:42:52.410Z,0.00
2019-01-21T02:43:52.375Z,0.00
2019-01-21T02:44:52.427Z,0.00
2019-01-21T02:45:52.389Z,0.00
2019-01-21T02:46:52.438Z,0.00
2019-01-21T02:47:59.781Z,0.00
2019-01-21T02:48:53.314Z,0.00
2019-01-21T02:49:52.366Z,0.00
2019-01-21T02:50:52.310Z,0.00
2019-01-21T02:51:52.374Z,0.00
2019-01-21T02:52:52.288Z,0.00
2019-01-21T02:53:52.292Z,0.00
2019-01-21T02:54:52.256Z,0.00
2019-01-21T02:55:52.394Z,0.00
2019-01-21T02:56:52.234Z,0.00
2019-01-21T02:57:52.323Z,0.00
2019-01-21T02:58:52.219Z,0.00
2019-01-21T02:59:52.234Z,0.00
2019-01-21T03:00:52.366Z,0.00
2019-01-21T03:01:52.237Z,0.00
2019-01-21T03:02:52.577Z,0.00
2019-01-21T03:03:52.288Z,0.00
2019-01-21T03:04:52.162Z,0.00
2019-01-21T03:05:52.168Z,0.00
2019-01-21T03:06:52.161Z,0.00
2019-01-21T03:07:52.179Z,0.00
2019-01-21T03:08:52.126Z,0.00
2019-01-21T03:09:52.210Z,0.00
2019-01-21T03:10:52.094Z,0.00
2019-01-21T03:11:55.617Z,0.00
2019-01-21T03:12:52.073Z,0.00
2019-01-21T03:13:52.113Z,0.00
2019-01-21T03:14:52.089Z,0.00
2019-01-21T03:15:52.129Z,0.00
2019-01-21T03:16:52.037Z,0.00
2019-01-21T03:17:52.048Z,0.00
2019-01-21T03:18:52.048Z,0.00
2019-01-21T03:19:52.054Z,0.00
2019-01-21T03:20:51.988Z,0.00
2019-01-21T03:21:52.104Z,0.00
2019-01-21T03:22:52.029Z,0.00
2019-01-21T03:23:51.979Z,0.00
2019-01-21T03:24:51.944Z,0.00
2019-01-21T03:25:52.006Z,0.00
2019-01-21T03:26:51.945Z,0.00
2019-01-21T03:27:52.009Z,0.00
2019-01-21T03:28:51.912Z,0.00
2019-01-21T03:29:51.968Z,0.00
2019-01-21T03:30:51.893Z,0.00
2019-01-21T03:31:51.971Z,0.00
2019-01-21T03:32:51.863Z,0.00
2019-01-21T03:33:51.963Z,0.00
2019-01-21T03:34:51.873Z,0.00
2019-01-21T03:35:51.900Z,0.00
2019-01-21T03:36:51.844Z,0.00
2019-01-21T03:37:51.871Z,0.00
2019-01-21T03:38:51.822Z,0.00
2019-01-21T03:39:51.890Z,0.00
2019-01-21T03:40:51.790Z,0.00
2019-01-21T03:41:51.833Z,0.00
2019-01-21T03:42:51.761Z,0.00
2019-01-21T03:43:51.815Z,0.00
2019-01-21T03:44:51.751Z,0.00
2019-01-21T03:45:51.823Z,0.00
2019-01-21T03:46:51.731Z,0.00
2019-01-21T03:47:51.734Z,0.00
2019-01-21T03:48:51.715Z,0.00
2019-01-21T03:49:51.745Z,0.00
2019-01-21T03:50:51.686Z,0.00
2019-01-21T03:51:51.791Z,0.00
2019-01-21T03:52:51.654Z,0.00
2019-01-21T03:53:51.670Z,0.00
2019-01-21T03:54:51.637Z,0.00
2019-01-21T03:55:51.698Z,0.00
2019-01-21T03:56:51.627Z,0.00
2019-01-21T03:57:51.741Z,0.00
2019-01-21T03:58:51.636Z,0.00
2019-01-21T03:59:51.616Z,0.00
2019-01-21T04:00:51.592Z,0.00
2019-01-21T04:01:52.680Z,0.00
2019-01-21T04:02:51.569Z,0.00
2019-01-21T04:03:51.637Z,0.00
2019-01-21T04:04:51.552Z,0.00
2019-01-21T04:05:51.556Z,0.00
2019-01-21T04:06:51.511Z,0.00
2019-01-21T04:07:51.594Z,0.00
2019-01-21T04:08:51.509Z,0.00
2019-01-21T04:09:51.573Z,0.00
2019-01-21T04:10:51.477Z,0.00
2019-01-21T04:11:51.494Z,0.00
2019-01-21T04:12:51.465Z,0.00
2019-01-21T04:13:51.551Z,0.00
2019-01-21T04:14:51.837Z,0.00
2019-01-21T04:15:51.511Z,0.00
2019-01-21T04:16:51.433Z,0.00
2019-01-21T04:17:51.450Z,0.00
2019-01-21T04:18:51.399Z,0.00
2019-01-21T04:19:51.477Z,0.00
2019-01-21T04:20:51.381Z,0.00
2019-01-21T04:21:51.478Z,0.00
2019-01-21T04:22:51.363Z,0.00
2019-01-21T04:23:51.368Z,0.00
2019-01-21T04:24:51.327Z,0.00
2019-01-21T04:25:51.379Z,0.00
2019-01-21T04:26:51.317Z,0.00
2019-01-21T04:27:51.418Z,0.00
2019-01-21T04:28:51.289Z,0.00
2019-01-21T04:29:51.319Z,0.00
2019-01-21T04:30:51.277Z,0.00
2019-01-21T04:31:51.317Z,0.00
2019-01-21T04:32:51.263Z,0.00
2019-01-21T04:33:51.335Z,0.00
2019-01-21T04:34:51.232Z,0.00
2019-01-21T04:35:51.240Z,0.00
2019-01-21T04:36:51.215Z,0.00
2019-01-21T04:37:51.297Z,0.00
2019-01-21T04:38:51.225Z,0.00
2019-01-21T04:39:51.277Z,0.00
2019-01-21T04:40:51.178Z,0.00
2019-01-21T04:41:51.185Z,0.00
2019-01-21T04:42:51.153Z,0.00
2019-01-21T04:43:51.203Z,0.00
2019-01-21T04:44:51.133Z,0.00
2019-01-21T04:45:51.217Z,0.00
2019-01-21T04:46:51.129Z,0.00
2019-01-21T04:47:51.155Z,0.00
2019-01-21T04:48:51.108Z,0.00
2019-01-21T04:49:53.196Z,0.00
2019-01-21T04:50:51.073Z,0.00
2019-01-21T04:51:52.076Z,0.00
2019-01-21T04:52:51.056Z,0.00
2019-01-21T04:53:51.089Z,0.00
2019-01-21T04:54:51.027Z,0.00
2019-01-21T04:55:51.159Z,0.00
2019-01-21T04:56:51.008Z,0.00
2019-01-21T04:57:52.017Z,0.00
2019-01-21T04:58:51.003Z,0.00
2019-01-21T04:59:51.000Z,0.00
2019-01-21T05:00:50.960Z,0.00
2019-01-21T05:01:51.035Z,0.00
2019-01-21T05:02:50.951Z,0.00
2019-01-21T05:03:51.498Z,0.00
2019-01-21T05:04:50.940Z,0.00
2019-01-21T05:05:50.942Z,0.00
2019-01-21T05:06:50.900Z,0.00
2019-01-21T05:07:50.954Z,0.00
2019-01-21T05:08:50.898Z,0.00
2019-01-21T05:09:50.982Z,0.00
2019-01-21T05:10:50.859Z,0.00
2019-01-21T05:11:50.875Z,0.00
2019-01-21T05:12:50.836Z,0.00
2019-01-21T05:13:50.917Z,0.00
2019-01-21T05:14:50.815Z,0.00
2019-01-21T05:15:50.906Z,0.00
2019-01-21T05:16:50.815Z,0.00
2019-01-21T05:17:50.831Z,0.00
2019-01-21T05:18:50.792Z,0.00
2019-01-21T05:19:50.825Z,0.00
2019-01-21T05:20:50.762Z,0.00
2019-01-21T05:21:50.847Z,0.00
2019-01-21T05:22:50.739Z,0.00
2019-01-21T05:23:50.795Z,0.00
2019-01-21T05:24:50.711Z,0.00
2019-01-21T05:25:50.795Z,0.00
2019-01-21T05:26:50.691Z,0.00
2019-01-21T05:27:50.784Z,0.00
2019-01-21T05:28:50.700Z,0.00
2019-01-21T05:29:50.694Z,0.00
2019-01-21T05:30:50.653Z,0.00
2019-01-21T05:31:50.710Z,0.00
2019-01-21T05:32:50.635Z,0.00
2019-01-21T05:33:50.743Z,0.00
2019-01-21T05:34:50.615Z,0.00
2019-01-21T05:35:50.633Z,0.00
2019-01-21T05:36:50.594Z,0.00
2019-01-21T05:37:50.648Z,0.00
2019-01-21T05:38:50.583Z,0.00
2019-01-21T05:39:58.539Z,0.00
2019-01-21T05:40:50.550Z,0.00
2019-01-21T05:41:58.557Z,0.00
2019-01-21T05:42:50.532Z,0.00
2019-01-21T05:43:57.570Z,0.00
2019-01-21T05:44:50.573Z,0.00
2019-01-21T05:45:51.527Z,0.00
2019-01-21T05:46:50.518Z,0.00
2019-01-21T05:47:50.511Z,0.00
2019-01-21T05:48:50.502Z,0.00
2019-01-21T05:49:50.541Z,0.00
2019-01-21T05:50:50.447Z,0.00
2019-01-21T05:51:50.558Z,0.00
2019-01-21T05:52:50.461Z,0.00
2019-01-21T05:53:50.474Z,0.00
2019-01-21T05:54:50.420Z,0.00
2019-01-21T05:55:50.462Z,0.00
2019-01-21T05:56:50.386Z,0.00
2019-01-21T05:57:50.469Z,0.00
2019-01-21T05:58:50.379Z,0.00
2019-01-21T05:59:50.417Z,0.00
2019-01-21T06:00:50.359Z,0.00
2019-01-21T06:01:50.404Z,0.00
2019-01-21T06:02:50.326Z,0.00
2019-01-21T06:03:50.412Z,0.00
2019-01-21T06:04:50.328Z,0.00
2019-01-21T06:05:50.326Z,0.00
2019-01-21T06:06:50.295Z,0.00
2019-01-21T06:07:50.355Z,0.00
2019-01-21T06:08:50.283Z,0.00
2019-01-21T06:09:50.383Z,0.00
2019-01-21T06:10:50.253Z,0.00
2019-01-21T06:11:50.260Z,0.00
2019-01-21T06:12:50.239Z,0.00
2019-01-21T06:13:50.274Z,0.00
2019-01-21T06:14:50.234Z,0.00
2019-01-21T06:15:50.325Z,0.00
2019-01-21T06:16:50.186Z,0.00
2019-01-21T06:17:50.202Z,0.00
2019-01-21T06:18:57.082Z,0.00
2019-01-21T06:19:51.260Z,0.00
2019-01-21T06:20:50.143Z,0.00
2019-01-21T06:21:50.225Z,0.00
2019-01-21T06:22:50.125Z,0.00
2019-01-21T06:23:50.140Z,0.00
2019-01-21T06:24:50.116Z,0.00
2019-01-21T06:25:50.168Z,0.00
2019-01-21T06:26:50.086Z,0.00
2019-01-21T06:27:50.175Z,0.00
2019-01-21T06:28:50.067Z,0.00
2019-01-21T06:30:04.643Z,0.00
2019-01-21T06:30:50.055Z,0.00
2019-01-21T06:31:50.097Z,0.00
2019-01-21T06:32:50.035Z,0.00
2019-01-21T06:33:51.027Z,0.00
2019-01-21T06:34:50.034Z,0.00
2019-01-21T06:35:50.175Z,0.00
2019-01-21T06:36:50.003Z,0.00
2019-01-21T06:37:50.029Z,0.00
2019-01-21T06:38:49.978Z,0.00
2019-01-21T06:39:50.114Z,0.00
2019-01-21T06:40:49.943Z,0.00
2019-01-21T06:41:49.957Z,0.00
2019-01-21T06:42:49.923Z,0.00
2019-01-21T06:43:49.977Z,0.00
2019-01-21T06:44:49.928Z,0.00
2019-01-21T06:45:49.984Z,0.00
2019-01-21T06:46:49.895Z,0.00
2019-01-21T06:47:49.900Z,0.00
2019-01-21T06:48:49.872Z,0.00
2019-01-21T06:49:50.018Z,0.00
2019-01-21T06:50:49.843Z,0.00
2019-01-21T06:51:49.929Z,0.00
2019-01-21T06:52:49.823Z,0.00
2019-01-21T06:53:49.850Z,0.00
2019-01-21T06:54:49.801Z,0.00
2019-01-21T06:55:49.880Z,0.00
2019-01-21T06:56:49.826Z,0.00
2019-01-21T06:57:49.861Z,0.00
2019-01-21T06:58:49.792Z,0.00
2019-01-21T06:59:49.770Z,0.00
2019-01-21T07:00:49.751Z,0.00
2019-01-21T07:01:49.805Z,0.00
2019-01-21T07:02:49.721Z,0.00
2019-01-21T07:03:49.833Z,0.00
2019-01-21T07:04:49.700Z,0.00
2019-01-21T07:05:49.731Z,0.00
2019-01-21T07:06:49.693Z,0.00
2019-01-21T07:07:49.727Z,0.00
2019-01-21T07:08:49.661Z,5.62
2019-01-21T07:09:49.736Z,5.62
2019-01-21T07:10:49.651Z,5.62
2019-01-21T07:11:49.650Z,5.62
2019-01-21T07:12:49.619Z,5.62
2019-01-21T07:13:49.682Z,5.62
2019-01-21T07:14:49.603Z,5.62
2019-01-21T07:15:49.721Z,11.25
2019-01-21T07:16:49.574Z,11.25
2019-01-21T07:17:49.598Z,11.25
2019-01-21T07:18:49.565Z,11.25
2019-01-21T07:19:49.618Z,11.25
2019-01-21T07:20:49.553Z,16.88
2019-01-21T07:21:49.624Z,16.88
2019-01-21T07:22:49.513Z,16.88
2019-01-21T07:23:49.538Z,16.88
2019-01-21T07:24:49.551Z,16.88
2019-01-21T07:25:49.564Z,22.50
2019-01-21T07:26:49.793Z,22.50
2019-01-21T07:27:51.498Z,22.50
2019-01-21T07:28:49.451Z,28.12
2019-01-21T07:29:49.482Z,28.12
2019-01-21T07:30:49.485Z,28.12
2019-01-21T07:31:49.503Z,33.75
2019-01-21T07:32:49.436Z,33.75
2019-01-21T07:33:49.506Z,33.75
2019-01-21T07:34:49.410Z,39.38
2019-01-21T07:35:49.425Z,39.38
2019-01-21T07:36:49.394Z,45.00
2019-01-21T07:37:49.417Z,45.00
2019-01-21T07:38:49.353Z,45.00
2019-01-21T07:39:49.838Z,50.62
2019-01-21T07:40:49.436Z,50.62
2019-01-21T07:41:49.341Z,56.25
2019-01-21T07:42:49.315Z,61.88
2019-01-21T07:43:49.356Z,61.88
2019-01-21T07:44:49.302Z,67.50
2019-01-21T07:45:49.369Z,73.12
2019-01-21T07:46:49.289Z,95.62
2019-01-21T07:47:49.392Z,106.88
2019-01-21T07:48:49.250Z,101.25
2019-01-21T07:49:49.293Z,106.88
2019-01-21T07:50:49.229Z,118.12
2019-01-21T07:51:49.333Z,135.00
2019-01-21T07:52:49.207Z,163.12
2019-01-21T07:53:49.227Z,185.62
2019-01-21T07:54:49.186Z,196.88
2019-01-21T07:55:49.236Z,202.50
2019-01-21T07:56:49.193Z,213.75
2019-01-21T07:57:49.243Z,225.00
2019-01-21T07:58:49.148Z,230.62
2019-01-21T07:59:49.162Z,241.88
2019-01-21T08:00:49.122Z,253.12
2019-01-21T08:01:49.211Z,264.38
2019-01-21T08:02:49.109Z,275.62
2019-01-21T08:03:49.193Z,281.25
2019-01-21T08:04:49.170Z,286.88
2019-01-21T08:05:49.105Z,298.12
2019-01-21T08:06:49.077Z,315.00
2019-01-21T08:07:49.117Z,331.88
2019-01-21T08:08:49.042Z,326.25
2019-01-21T08:09:49.131Z,315.00
2019-01-21T08:10:49.067Z,309.38
2019-01-21T08:11:49.062Z,309.38
2019-01-21T08:12:49.002Z,303.75
2019-01-21T08:13:49.051Z,309.38
2019-01-21T08:14:48.980Z,343.12
2019-01-21T08:15:49.066Z,360.00
2019-01-21T08:16:48.969Z,371.25
2019-01-21T08:17:48.971Z,371.25
2019-01-21T08:18:48.951Z,382.50
2019-01-21T08:19:48.995Z,399.38
2019-01-21T08:20:48.916Z,421.88
2019-01-21T08:21:49.037Z,433.12
2019-01-21T08:22:48.896Z,455.62
2019-01-21T08:23:48.909Z,472.50
2019-01-21T08:24:48.913Z,466.88
2019-01-21T08:25:48.924Z,438.75
2019-01-21T08:26:48.871Z,427.50
2019-01-21T08:27:48.938Z,405.00
2019-01-21T08:28:48.828Z,410.62
2019-01-21T08:29:48.851Z,438.75
2019-01-21T08:30:48.807Z,455.62
2019-01-21T08:31:48.863Z,478.12
2019-01-21T08:32:48.810Z,511.88
2019-01-21T08:33:48.876Z,534.38
2019-01-21T08:34:48.791Z,545.62
2019-01-21T08:35:48.789Z,545.62
2019-01-21T08:36:48.771Z,545.62
2019-01-21T08:37:48.827Z,579.38
2019-01-21T08:38:48.723Z,630.00
2019-01-21T08:39:48.831Z,663.75
2019-01-21T08:40:48.729Z,669.38
2019-01-21T08:41:48.733Z,652.50
2019-01-21T08:42:48.686Z,579.38
2019-01-21T08:43:48.740Z,568.12
2019-01-21T08:44:49.060Z,618.75
2019-01-21T08:45:48.823Z,725.62
2019-01-21T08:46:48.684Z,759.38
2019-01-21T08:47:48.694Z,753.75
2019-01-21T08:48:49.004Z,753.75
2019-01-21T08:49:48.682Z,776.25
2019-01-21T08:50:48.601Z,804.38
2019-01-21T08:51:48.713Z,793.12
2019-01-21T08:52:48.578Z,787.50
2019-01-21T08:53:48.610Z,810.00
2019-01-21T08:54:48.545Z,838.12
2019-01-21T08:55:49.657Z,838.12
2019-01-21T08:56:48.524Z,838.12
2019-01-21T08:57:48.608Z,855.00
2019-01-21T08:58:48.501Z,860.62
2019-01-21T08:59:56.030Z,810.00
2019-01-21T09:00:48.477Z,832.50
2019-01-21T09:01:48.583Z,832.50
2019-01-21T09:02:48.498Z,759.38
2019-01-21T09:03:48.476Z,815.62
2019-01-21T09:04:48.442Z,855.00
2019-01-21T09:05:48.481Z,855.00
2019-01-21T09:06:48.421Z,838.12
2019-01-21T09:07:48.530Z,821.25
2019-01-21T09:08:48.453Z,849.38
2019-01-21T09:09:48.405Z,900.00
2019-01-21T09:10:48.390Z,978.75
2019-01-21T09:11:48.433Z,990.00
2019-01-21T09:12:48.356Z,1001.25
2019-01-21T09:13:48.461Z,973.12
2019-01-21T09:14:48.329Z,1035.00
2019-01-21T09:15:48.362Z,1136.25
2019-01-21T09:16:48.314Z,1186.88
2019-01-21T09:17:48.388Z,1226.25
2019-01-21T09:18:48.291Z,1282.50
2019-01-21T09:19:48.392Z,1305.00
2019-01-21T09:20:48.271Z,1310.62
2019-01-21T09:21:48.287Z,1271.25
2019-01-21T09:22:48.304Z,1299.38
2019-01-21T09:23:48.333Z,1361.25
2019-01-21T09:24:48.232Z,1383.75
2019-01-21T09:25:48.311Z,1400.62
2019-01-21T09:26:48.214Z,1400.62
2019-01-21T09:27:48.300Z,1440.00
2019-01-21T09:28:48.210Z,1546.88
2019-01-21T09:29:48.235Z,1597.50
2019-01-21T09:30:48.150Z,1575.00
2019-01-21T09:31:48.659Z,1636.88
2019-01-21T09:32:48.123Z,1591.88
2019-01-21T09:33:48.196Z,1653.75
2019-01-21T09:34:48.127Z,1665.00
2019-01-21T09:35:48.217Z,1659.38
2019-01-21T09:36:48.083Z,1631.25
2019-01-21T09:37:48.192Z,1659.38
2019-01-21T09:38:48.073Z,1659.38
2019-01-21T09:39:48.151Z,1698.75
2019-01-21T09:40:48.059Z,1693.12
2019-01-21T09:41:48.114Z,1738.12
2019-01-21T09:42:48.022Z,1755.00
2019-01-21T09:43:48.075Z,1766.25
2019-01-21T09:44:48.014Z,1771.88
2019-01-21T09:45:48.053Z,1794.38
2019-01-21T09:46:47.977Z,1833.75
2019-01-21T09:47:49.082Z,1923.75
2019-01-21T09:48:48.094Z,1935.00
2019-01-21T09:49:47.965Z,1906.88
2019-01-21T09:50:47.927Z,1867.50
2019-01-21T09:51:47.979Z,1873.12
2019-01-21T09:52:47.910Z,1901.25
2019-01-21T09:53:47.990Z,1873.12
2019-01-21T09:54:47.896Z,1884.38
2019-01-21T09:55:47.913Z,1957.50
2019-01-21T09:56:47.865Z,1951.88
2019-01-21T09:57:47.919Z,1935.00
2019-01-21T09:58:47.835Z,1980.00
2019-01-21T09:59:47.861Z,1985.62
2019-01-21T10:00:48.389Z,2013.75
2019-01-21T10:01:47.840Z,2053.12
2019-01-21T10:02:47.843Z,2227.50
2019-01-21T10:03:47.854Z,2356.88
2019-01-21T10:04:47.785Z,2368.12
2019-01-21T10:05:47.867Z,2311.88
2019-01-21T10:06:47.756Z,2356.88
2019-01-21T10:07:47.782Z,2390.62
2019-01-21T10:08:47.731Z,2373.75
2019-01-21T10:09:47.818Z,2424.38
2019-01-21T10:10:47.710Z,2418.75
2019-01-21T10:11:47.722Z,2418.75
2019-01-21T10:12:47.686Z,2401.88
2019-01-21T10:13:47.718Z,2390.62
2019-01-21T10:14:47.677Z,2401.88
2019-01-21T10:15:47.731Z,2418.75
2019-01-21T10:16:47.659Z,2486.25
2019-01-21T10:17:47.643Z,2424.38
2019-01-21T10:18:47.950Z,2379.38
2019-01-21T10:19:50.782Z,2503.12
2019-01-21T10:20:47.593Z,2475.00
2019-01-21T10:21:47.678Z,2379.38
2019-01-21T10:22:47.573Z,2480.62
2019-01-21T10:23:47.582Z,2525.62
2019-01-21T10:24:47.572Z,2542.50
2019-01-21T10:25:49.643Z,2536.88
2019-01-21T10:26:47.525Z,2570.62
2019-01-21T10:27:47.610Z,2598.75
2019-01-21T10:28:47.505Z,2514.38
2019-01-21T10:29:47.584Z,2621.25
2019-01-21T10:30:47.480Z,2626.88
2019-01-21T10:31:47.551Z,2604.38
2019-01-21T10:32:47.457Z,2469.38
2019-01-21T10:33:47.552Z,2424.38
2019-01-21T10:34:47.446Z,2362.50
2019-01-21T10:35:47.469Z,2480.62
2019-01-21T10:36:47.416Z,2576.25
2019-01-21T10:37:47.485Z,2469.38
2019-01-21T10:38:47.410Z,2430.00
2019-01-21T10:39:47.516Z,2053.12
2019-01-21T10:40:47.375Z,2261.25
2019-01-21T10:41:47.898Z,2193.75
2019-01-21T10:42:47.355Z,2430.00
2019-01-21T10:43:47.417Z,2565.00
2019-01-21T10:44:47.328Z,2525.62
2019-01-21T10:45:47.348Z,2480.62
2019-01-21T10:46:47.306Z,2587.50
2019-01-21T10:47:47.346Z,2632.50
2019-01-21T10:48:47.285Z,2677.50
2019-01-21T10:49:47.350Z,2655.00
2019-01-21T10:50:47.276Z,2542.50
2019-01-21T10:51:47.370Z,2666.25
2019-01-21T10:52:47.253Z,2705.62
2019-01-21T10:53:47.279Z,2677.50
2019-01-21T10:54:47.226Z,2632.50
2019-01-21T10:55:47.327Z,2548.12
2019-01-21T10:56:47.194Z,2458.12
2019-01-21T10:57:47.205Z,2581.88
2019-01-21T10:58:47.170Z,2626.88
2019-01-21T10:59:47.220Z,2801.25
2019-01-21T11:00:47.172Z,2728.12
2019-01-21T11:01:47.232Z,2469.38
2019-01-21T11:02:47.132Z,2688.75
2019-01-21T11:03:47.141Z,2643.75
2019-01-21T11:04:47.112Z,2700.00
2019-01-21T11:05:47.191Z,2598.75
2019-01-21T11:06:47.106Z,2655.00
2019-01-21T11:07:47.073Z,2790.00
2019-01-21T11:08:47.066Z,2806.88
2019-01-21T11:09:55.411Z,2874.38
2019-01-21T11:10:47.052Z,2941.88
2019-01-21T11:11:53.996Z,2913.75
2019-01-21T11:12:48.019Z,2953.12
2019-01-21T11:13:48.032Z,2818.12
2019-01-21T11:14:46.993Z,2351.25
2019-01-21T11:15:47.059Z,3009.38
2019-01-21T11:16:46.983Z,2953.12
2019-01-21T11:17:47.031Z,2981.25
2019-01-21T11:18:46.948Z,2941.88
2019-01-21T11:19:47.965Z,2986.88
2019-01-21T11:20:46.957Z,2868.75
2019-01-21T11:21:46.955Z,2795.62
2019-01-21T11:22:46.911Z,2829.38
2019-01-21T11:23:46.969Z,2857.50
2019-01-21T11:24:46.881Z,2818.12
2019-01-21T11:25:46.880Z,2739.38
2019-01-21T11:26:47.286Z,2626.88
2019-01-21T11:27:46.894Z,2812.50
2019-01-21T11:28:46.840Z,2919.38
2019-01-21T11:29:46.909Z,2936.25
2019-01-21T11:30:46.814Z,3015.00
2019-01-21T11:31:46.858Z,2998.12
2019-01-21T11:32:47.193Z,2880.00
2019-01-21T11:33:46.834Z,2902.50
2019-01-21T11:34:46.793Z,3043.12
2019-01-21T11:35:46.848Z,2885.62
2019-01-21T11:36:46.757Z,2716.88
2019-01-21T11:37:46.760Z,2711.25
2019-01-21T11:38:46.729Z,2913.75
2019-01-21T11:39:46.773Z,3099.38
2019-01-21T11:40:46.714Z,3178.12
2019-01-21T11:41:46.815Z,3268.12
2019-01-21T11:42:46.685Z,3301.88
2019-01-21T11:43:46.696Z,2058.75
2019-01-21T11:44:46.663Z,3076.88
2019-01-21T11:45:46.709Z,3268.12
2019-01-21T11:46:46.650Z,3155.62
2019-01-21T11:47:46.723Z,3251.25
2019-01-21T11:48:46.626Z,3048.75
2019-01-21T11:49:46.650Z,2728.12
2019-01-21T11:50:46.591Z,2773.12
2019-01-21T11:51:46.685Z,2902.50
2019-01-21T11:52:46.567Z,3515.62
2019-01-21T11:53:46.663Z,2716.88
2019-01-21T11:54:46.586Z,3037.50
2019-01-21T11:55:53.527Z,3673.12
2019-01-21T11:56:46.537Z,2576.25
2019-01-21T11:57:48.540Z,3290.62
2019-01-21T11:58:46.501Z,3796.88
2019-01-21T11:59:47.526Z,2446.88
2019-01-21T12:00:46.478Z,3189.38
2019-01-21T12:01:46.554Z,4027.50
2019-01-21T12:02:46.460Z,2553.75
2019-01-21T12:03:46.527Z,2266.88
2019-01-21T12:04:46.433Z,3521.25
2019-01-21T12:05:46.436Z,3273.75
2019-01-21T12:06:46.443Z,2171.25
2019-01-21T12:07:46.456Z,3138.75
2019-01-21T12:08:46.413Z,4516.88
2019-01-21T12:09:46.468Z,3453.75
2019-01-21T12:10:46.365Z,2092.50
2019-01-21T12:11:46.380Z,3026.25
2019-01-21T12:12:46.372Z,4443.75
2019-01-21T12:13:46.391Z,3605.62
2019-01-21T12:14:46.349Z,2176.88
2019-01-21T12:15:46.448Z,2778.75
2019-01-21T12:16:46.297Z,4145.62
2019-01-21T12:17:46.351Z,3498.75
2019-01-21T12:18:46.278Z,2205.00
2019-01-21T12:19:46.356Z,2514.38
2019-01-21T12:20:46.265Z,4145.62
2019-01-21T12:21:46.343Z,4134.38
2019-01-21T12:22:46.244Z,2745.00
2019-01-21T12:23:46.254Z,2334.38
2019-01-21T12:24:46.217Z,3571.88
2019-01-21T12:25:46.268Z,4241.25
2019-01-21T12:26:46.188Z,3206.25
2019-01-21T12:27:46.221Z,2300.62
2019-01-21T12:28:46.164Z,2958.75
2019-01-21T12:29:46.192Z,4010.62
2019-01-21T12:30:46.138Z,3768.75
2019-01-21T12:31:46.205Z,2525.62
2019-01-21T12:32:46.148Z,2430.00
2019-01-21T12:33:46.218Z,3532.50
2019-01-21T12:34:47.550Z,4055.62
2019-01-21T12:35:46.130Z,3183.75
2019-01-21T12:36:47.418Z,2278.12
2019-01-21T12:37:47.202Z,2666.25
2019-01-21T12:38:46.055Z,3746.25
2019-01-21T12:39:48.142Z,3886.88
2019-01-21T12:40:46.035Z,2902.50
2019-01-21T12:41:48.121Z,2205.00
2019-01-21T12:42:46.026Z,2671.88
2019-01-21T12:43:48.029Z,3723.75
2019-01-21T12:44:45.991Z,3825.00
2019-01-21T12:45:45.994Z,3003.75
2019-01-21T12:46:45.968Z,2385.00
2019-01-21T12:47:46.044Z,2835.00
2019-01-21T12:48:45.952Z,3746.25
2019-01-21T12:49:46.021Z,3943.12